createdAt,value
2022-08-05T00:00:18.506Z,22.99
2022-08-05T00:02:50.925Z,23.07
2022-08-05T00:06:01.699Z,23.07
2022-08-05T00:08:30.810Z,23.05
2022-08-05T00:11:01.242Z,22.90
2022-08-05T00:13:39.139Z,23.03
2022-08-05T00:16:12.307Z,22.99
2022-08-05T00:18:42.722Z,23.00
2022-08-05T00:21:12.121Z,22.98
2022-08-05T00:23:46.789Z,22.96
2022-08-05T00:26:22.152Z,22.93
2022-08-05T00:28:49.749Z,22.89
2022-08-05T00:31:16.835Z,22.90
2022-08-05T00:34:53.258Z,22.89
2022-08-05T00:37:11.598Z,22.89
2022-08-05T00:39:44.177Z,22.88
2022-08-05T00:42:37.062Z,22.91
2022-08-05T00:45:08.520Z,22.84
2022-08-05T00:47:56.706Z,22.83
2022-08-05T00:50:25.711Z,22.88
2022-08-05T00:52:55.103Z,22.94
2022-08-05T00:55:23.259Z,22.95
2022-08-05T00:58:11.317Z,22.92
2022-08-05T01:00:39.723Z,22.95
2022-08-05T01:03:07.983Z,22.98
2022-08-05T01:05:35.396Z,23.08
2022-08-05T01:08:39.924Z,23.10
2022-08-05T01:10:55.063Z,23.21
2022-08-05T01:13:58.436Z,23.19
2022-08-05T01:16:29.486Z,23.27
2022-08-05T01:19:06.618Z,23.32
2022-08-05T01:21:51.406Z,23.31
2022-08-05T01:24:33.652Z,23.31
2022-08-05T01:27:00.744Z,23.25
2022-08-05T01:29:49.389Z,23.21
2022-08-05T01:32:22.763Z,23.14
2022-08-05T01:34:59.302Z,23.13
2022-08-05T01:37:36.495Z,23.12
2022-08-05T01:40:06.770Z,23.08
2022-08-05T01:42:36.777Z,23.07
2022-08-05T01:45:08.197Z,23.04
2022-08-05T01:47:39.719Z,23.01
2022-08-05T01:50:28.817Z,23.07
2022-08-05T01:53:02.268Z,23.07
2022-08-05T01:55:32.672Z,22.99
2022-08-05T01:58:11.162Z,23.03
2022-08-05T02:00:49.111Z,22.97
2022-08-05T02:03:34.111Z,23.02
2022-08-05T02:06:33.566Z,22.98
2022-08-05T02:08:58.126Z,22.91
2022-08-05T02:11:33.323Z,22.91
2022-08-05T02:14:17.586Z,22.93
2022-08-05T02:16:52.465Z,22.83
2022-08-05T02:19:36.311Z,22.94
2022-08-05T02:22:27.032Z,22.93
2022-08-05T02:25:04.921Z,22.94
2022-08-05T02:27:59.128Z,22.93
2022-08-05T02:30:28.031Z,22.97
2022-08-05T02:32:59.172Z,22.99
2022-08-05T02:35:33.293Z,23.03
2022-08-05T02:38:09.165Z,23.11
2022-08-05T02:40:41.416Z,23.18
2022-08-05T02:43:13.094Z,23.24
2022-08-05T02:45:52.382Z,23.32
2022-08-05T02:48:29.685Z,23.38
2022-08-05T02:51:04.229Z,23.37
2022-08-05T02:53:39.117Z,23.46
2022-08-05T02:56:09.725Z,23.54
2022-08-05T02:58:45.007Z,23.60
2022-08-05T03:01:23.563Z,23.65
2022-08-05T03:04:02.598Z,23.64
2022-08-05T03:06:54.362Z,23.69
2022-08-05T03:09:26.910Z,23.84
2022-08-05T03:12:04.936Z,23.92
2022-08-05T03:14:31.953Z,23.93
2022-08-05T03:16:59.229Z,24.01
2022-08-05T03:19:33.273Z,24.06
2022-08-05T03:22:01.778Z,24.10
2022-08-05T03:24:32.133Z,24.15
2022-08-05T03:27:01.195Z,24.22
2022-08-05T03:29:45.761Z,24.26
2022-08-05T03:32:16.589Z,24.33
2022-08-05T03:34:50.509Z,24.39
2022-08-05T03:37:21.331Z,24.47
2022-08-05T03:40:01.889Z,24.52
2022-08-05T03:42:32.881Z,24.54
2022-08-05T03:45:21.553Z,24.61
2022-08-05T03:47:50.973Z,24.65
2022-08-05T03:50:18.486Z,24.70
2022-08-05T03:55:00.073Z,24.77
2022-08-05T03:56:10.817Z,24.85
2022-08-05T03:58:43.061Z,24.91
2022-08-05T04:01:14.110Z,24.99
2022-08-05T04:04:09.257Z,25.05
2022-08-05T04:06:33.974Z,25.03
2022-08-05T04:09:02.330Z,25.17
2022-08-05T04:11:47.638Z,25.28
2022-08-05T04:14:19.473Z,25.40
2022-08-05T04:16:58.863Z,25.46
2022-08-05T04:19:26.010Z,25.52
2022-08-05T04:22:08.180Z,25.66
2022-08-05T04:24:44.264Z,25.83
2022-08-05T04:27:13.693Z,25.96
2022-08-05T04:29:41.663Z,26.07
2022-08-05T04:32:09.642Z,26.19
2022-08-05T04:34:43.014Z,26.27
2022-08-05T04:37:10.698Z,26.26
2022-08-05T04:39:38.016Z,26.42
2022-08-05T04:42:06.614Z,26.27
2022-08-05T04:44:33.715Z,26.23
2022-08-05T04:47:08.639Z,27.00
2022-08-05T04:50:01.782Z,28.18
2022-08-05T04:52:27.735Z,29.14
2022-08-05T04:54:57.267Z,29.81
2022-08-05T04:57:29.104Z,29.98
2022-08-05T04:59:58.322Z,29.18
2022-08-05T05:02:37.345Z,28.48
2022-08-05T05:05:26.577Z,28.30
2022-08-05T05:08:02.091Z,27.80
2022-08-05T05:10:47.292Z,27.71
2022-08-05T05:13:23.127Z,27.42
2022-08-05T05:15:59.166Z,27.40
2022-08-05T05:18:33.111Z,27.36
2022-08-05T05:21:03.793Z,27.47
2022-08-05T05:23:39.466Z,27.52
2022-08-05T05:26:18.637Z,27.57
2022-08-05T05:28:45.673Z,27.54
2022-08-05T05:31:13.320Z,27.50
2022-08-05T05:33:59.632Z,27.58
2022-08-05T05:36:28.621Z,27.75
2022-08-05T05:38:57.464Z,27.95
2022-08-05T05:41:24.764Z,27.97
2022-08-05T05:43:57.229Z,28.04
2022-08-05T05:46:25.782Z,28.17
2022-08-05T05:48:52.853Z,28.33
2022-08-05T05:51:24.524Z,28.34
2022-08-05T05:53:58.832Z,28.36
2022-08-05T05:56:33.795Z,28.57
2022-08-05T05:59:07.629Z,28.84
2022-08-05T06:01:39.562Z,28.95
2022-08-05T06:04:12.686Z,29.19
2022-08-05T06:06:43.003Z,29.08
2022-08-05T06:09:17.495Z,29.23
2022-08-05T06:11:59.225Z,30.02
2022-08-05T06:14:28.960Z,31.09
2022-08-05T06:16:57.040Z,31.66
2022-08-05T06:19:35.051Z,32.78
2022-08-05T06:22:04.652Z,34.26
2022-08-05T06:24:35.530Z,35.52
2022-08-05T06:27:04.034Z,36.40
2022-08-05T06:29:46.513Z,37.29
2022-08-05T06:32:26.411Z,38.01
2022-08-05T06:34:58.617Z,38.53
2022-08-05T06:37:57.418Z,39.08
2022-08-05T06:40:20.640Z,39.35
2022-08-05T06:42:52.370Z,39.86
2022-08-05T06:45:44.508Z,40.44
2022-08-05T06:48:36.869Z,40.70
2022-08-05T06:50:55.650Z,41.01
2022-08-05T06:53:28.408Z,40.50
2022-08-05T06:56:00.656Z,41.29
2022-08-05T06:58:35.288Z,41.71
2022-08-05T07:01:06.463Z,42.12
2022-08-05T07:03:34.123Z,42.25
2022-08-05T07:06:06.223Z,42.11
2022-08-05T07:08:48.050Z,40.54
2022-08-05T07:11:22.503Z,40.59
2022-08-05T07:14:20.027Z,40.53
2022-08-05T07:17:58.331Z,40.62
2022-08-05T07:22:36.461Z,40.81
2022-08-05T07:25:23.870Z,40.52
2022-08-05T07:28:00.622Z,40.72
2022-08-05T07:30:38.551Z,39.87
2022-08-05T07:33:15.698Z,41.19
2022-08-05T07:36:05.159Z,40.59
2022-08-05T07:38:43.412Z,39.31
2022-08-05T07:42:13.980Z,40.68
2022-08-05T07:44:18.564Z,41.24
2022-08-05T07:46:49.219Z,41.53
2022-08-05T07:49:18.639Z,40.72
2022-08-05T07:51:53.841Z,40.51
2022-08-05T07:54:30.704Z,41.62
2022-08-05T07:57:22.390Z,41.78
2022-08-05T07:59:49.716Z,41.96
2022-08-05T08:02:18.062Z,43.34
2022-08-05T08:04:47.693Z,43.40
2022-08-05T08:07:17.959Z,43.12
2022-08-05T08:09:46.599Z,44.18
2022-08-05T08:12:33.627Z,43.37
2022-08-05T08:15:04.533Z,43.55
2022-08-05T08:17:33.123Z,43.81
2022-08-05T08:20:42.926Z,42.92
2022-08-05T08:22:57.414Z,43.68
2022-08-05T08:25:26.895Z,44.50
2022-08-05T08:28:18.697Z,41.47
2022-08-05T08:30:59.499Z,42.85
2022-08-05T08:33:28.211Z,42.26
2022-08-05T08:36:18.418Z,42.47
2022-08-05T08:38:42.263Z,43.41
2022-08-05T08:41:14.253Z,43.44
2022-08-05T08:45:21.421Z,44.79
2022-08-05T08:46:32.008Z,45.62
2022-08-05T08:50:07.600Z,46.01
2022-08-05T08:52:03.171Z,45.82
2022-08-05T08:54:33.416Z,46.07
2022-08-05T08:57:11.389Z,45.95
2022-08-05T08:59:47.396Z,44.25
2022-08-05T09:02:19.295Z,43.88
2022-08-05T09:04:58.480Z,44.24
2022-08-05T09:07:39.889Z,43.67
2022-08-05T09:10:27.007Z,45.05
2022-08-05T09:12:56.041Z,45.48
2022-08-05T09:15:56.645Z,44.96
2022-08-05T09:18:40.083Z,44.70
2022-08-05T09:22:30.917Z,44.26
2022-08-05T09:25:24.581Z,44.22
2022-08-05T09:29:02.035Z,43.06
2022-08-05T09:32:40.726Z,45.07
2022-08-05T09:35:27.891Z,45.25
2022-08-05T09:39:00.425Z,46.22
2022-08-05T09:41:33.145Z,46.97
2022-08-05T09:44:06.469Z,47.48
2022-08-05T09:46:35.081Z,47.51
2022-08-05T09:49:19.079Z,47.78
2022-08-05T09:51:49.450Z,45.08
2022-08-05T09:54:21.433Z,44.53
2022-08-05T09:56:57.499Z,45.49
2022-08-05T09:59:28.379Z,45.82
2022-08-05T10:01:58.538Z,46.57
2022-08-05T10:04:36.161Z,47.12
2022-08-05T10:07:31.848Z,47.76
2022-08-05T10:10:15.265Z,47.68
2022-08-05T10:12:49.585Z,48.04
2022-08-05T10:15:44.004Z,48.27
2022-08-05T10:18:20.381Z,48.47
2022-08-05T10:20:53.517Z,46.39
2022-08-05T10:23:55.990Z,46.46
2022-08-05T10:26:14.390Z,47.42
2022-08-05T10:28:46.573Z,47.73
2022-08-05T10:32:48.712Z,47.94
2022-08-05T10:34:03.897Z,45.15
2022-08-05T10:36:36.854Z,45.41
2022-08-05T10:39:15.163Z,45.12
2022-08-05T10:42:03.989Z,46.37
2022-08-05T10:44:32.858Z,46.54
2022-08-05T10:47:26.506Z,46.76
2022-08-05T10:50:32.342Z,46.12
2022-08-05T10:53:02.135Z,46.61
2022-08-05T10:55:38.543Z,45.63
2022-08-05T10:58:18.249Z,45.96
2022-08-05T11:00:55.425Z,44.71
2022-08-05T11:03:30.175Z,44.42
2022-08-05T11:06:15.631Z,44.78
2022-08-05T11:09:24.250Z,44.74
2022-08-05T11:12:26.529Z,46.07
2022-08-05T11:15:19.830Z,44.23
2022-08-05T11:17:57.402Z,44.62
2022-08-05T11:20:46.156Z,43.08
2022-08-05T11:24:04.504Z,41.37
2022-08-05T11:26:37.668Z,40.56
2022-08-05T11:29:13.311Z,39.48
2022-08-05T11:31:58.420Z,39.01
2022-08-05T11:34:39.135Z,38.91
2022-08-05T11:38:29.891Z,38.46
2022-08-05T11:39:55.271Z,38.99
2022-08-05T11:42:28.539Z,39.77
2022-08-05T11:45:03.639Z,39.89
2022-08-05T11:47:49.265Z,39.55
2022-08-05T11:50:18.201Z,39.53
2022-08-05T11:52:48.423Z,38.40
2022-08-05T11:55:16.068Z,38.32
2022-08-05T11:58:09.906Z,38.14
2022-08-05T12:00:38.362Z,37.56
2022-08-05T12:03:24.110Z,37.34
2022-08-05T12:06:01.030Z,37.13
2022-08-05T12:08:28.106Z,36.84
2022-08-05T12:11:05.483Z,36.44
2022-08-05T12:13:48.619Z,36.09
2022-08-05T12:16:25.414Z,35.71
2022-08-05T12:18:55.459Z,35.60
2022-08-05T12:21:30.600Z,35.55
2022-08-05T12:24:09.020Z,35.36
2022-08-05T12:26:39.197Z,35.25
2022-08-05T12:29:15.978Z,35.12
2022-08-05T12:32:01.867Z,34.87
2022-08-05T12:34:37.117Z,34.65
2022-08-05T12:37:16.956Z,34.56
2022-08-05T12:39:45.194Z,34.24
2022-08-05T12:42:19.815Z,34.05
2022-08-05T12:44:47.430Z,33.86
2022-08-05T12:47:27.524Z,33.80
2022-08-05T12:50:02.356Z,33.73
2022-08-05T12:52:38.802Z,33.71
2022-08-05T12:55:22.703Z,33.66
2022-08-05T12:58:48.267Z,33.62
2022-08-05T13:02:01.734Z,33.54
2022-08-05T13:03:32.034Z,33.29
2022-08-05T13:06:01.491Z,33.23
2022-08-05T13:08:30.320Z,33.12
2022-08-05T13:11:02.182Z,33.12
2022-08-05T13:14:05.669Z,33.10
2022-08-05T13:16:17.580Z,33.10
2022-08-05T13:18:52.250Z,33.02
2022-08-05T13:21:22.506Z,33.16
2022-08-05T13:23:54.975Z,33.18
2022-08-05T13:26:29.765Z,33.34
2022-08-05T13:28:59.158Z,33.43
2022-08-05T13:31:33.739Z,33.35
2022-08-05T13:34:23.085Z,33.27
2022-08-05T13:36:53.327Z,33.40
2022-08-05T13:39:24.564Z,33.48
2022-08-05T13:42:14.531Z,33.45
2022-08-05T13:44:46.276Z,33.27
2022-08-05T13:47:36.057Z,33.24
2022-08-05T13:50:06.557Z,33.20
2022-08-05T13:52:36.840Z,33.02
2022-08-05T13:55:08.021Z,32.89
2022-08-05T13:57:51.646Z,32.58
2022-08-05T14:00:26.882Z,32.47
2022-08-05T14:02:57.843Z,32.34
2022-08-05T14:05:48.060Z,32.20
2022-08-05T14:08:20.782Z,32.13
2022-08-05T14:10:48.986Z,31.96
2022-08-05T14:13:16.334Z,31.81
2022-08-05T14:16:09.286Z,31.73
2022-08-05T14:18:30.591Z,31.67
2022-08-05T14:20:59.073Z,31.59
2022-08-05T14:23:29.681Z,31.46
2022-08-05T14:26:04.846Z,31.27
2022-08-05T14:28:33.357Z,31.28
2022-08-05T14:31:04.881Z,31.28
2022-08-05T14:33:59.408Z,31.20
2022-08-05T14:36:27.413Z,31.17
2022-08-05T14:38:54.593Z,31.12
2022-08-05T14:41:21.649Z,31.10
2022-08-05T14:44:02.298Z,31.10
2022-08-05T14:46:35.112Z,31.06
2022-08-05T14:49:08.079Z,30.98
2022-08-05T14:51:37.549Z,30.92
2022-08-05T14:54:27.771Z,30.87
2022-08-05T14:56:54.765Z,30.81
2022-08-05T14:59:22.209Z,30.71
2022-08-05T15:01:50.264Z,30.67
2022-08-05T15:04:20.603Z,30.64
2022-08-05T15:06:52.649Z,30.73
2022-08-05T15:09:52.657Z,30.75
2022-08-05T15:12:11.801Z,30.67
2022-08-05T15:14:49.839Z,30.58
2022-08-05T15:17:46.788Z,30.51
2022-08-05T15:20:18.886Z,30.49
2022-08-05T15:22:54.171Z,30.46
2022-08-05T15:25:23.465Z,30.44
2022-08-05T15:28:09.199Z,30.36
2022-08-05T15:30:42.467Z,30.37
2022-08-05T15:33:10.685Z,30.28
2022-08-05T15:35:45.275Z,30.23
2022-08-05T15:38:35.543Z,30.17
2022-08-05T15:41:20.847Z,30.04
2022-08-05T15:43:47.397Z,29.93
2022-08-05T15:46:14.758Z,29.85
2022-08-05T15:48:52.802Z,29.78
2022-08-05T15:52:04.023Z,29.71
2022-08-05T15:54:16.947Z,29.67
2022-08-05T15:56:44.148Z,29.61
2022-08-05T15:59:21.913Z,29.56
2022-08-05T16:01:52.807Z,29.53
2022-08-05T16:04:25.251Z,29.55
2022-08-05T16:06:55.615Z,29.47
2022-08-05T16:09:24.980Z,29.45
2022-08-05T16:11:54.386Z,29.40
2022-08-05T16:14:22.702Z,29.34
2022-08-05T16:16:50.550Z,29.31
2022-08-05T16:19:25.296Z,29.28
2022-08-05T16:22:07.412Z,29.19
2022-08-05T16:24:41.328Z,29.14
2022-08-05T16:27:18.209Z,29.10
2022-08-05T16:29:50.291Z,29.07
2022-08-05T16:32:23.318Z,29.01
2022-08-05T16:34:56.523Z,28.90
2022-08-05T16:38:15.823Z,28.82
2022-08-05T16:40:25.050Z,28.75
2022-08-05T16:42:56.202Z,28.72
2022-08-05T16:46:03.963Z,28.63
2022-08-05T16:48:10.550Z,28.57
2022-08-05T16:50:37.781Z,28.45
2022-08-05T16:53:12.474Z,28.41
2022-08-05T16:55:49.776Z,28.30
2022-08-05T16:58:25.623Z,28.25
2022-08-05T17:00:53.453Z,28.14
2022-08-05T17:03:21.042Z,28.06
2022-08-05T17:05:53.829Z,28.03
2022-08-05T17:08:35.771Z,27.96
2022-08-05T17:11:04.396Z,27.91
2022-08-05T17:13:37.833Z,27.82
2022-08-05T17:16:36.358Z,27.72
2022-08-05T17:18:58.101Z,27.62
2022-08-05T17:21:35.589Z,27.57
2022-08-05T17:24:28.245Z,27.51
2022-08-05T17:26:57.126Z,27.39
2022-08-05T17:29:33.163Z,27.36
2022-08-05T17:32:01.353Z,27.24
2022-08-05T17:34:29.877Z,27.16
2022-08-05T17:37:00.412Z,27.11
2022-08-05T17:39:29.824Z,27.03
2022-08-05T17:42:18.621Z,26.92
2022-08-05T17:44:51.218Z,26.85
2022-08-05T17:47:22.961Z,26.79
2022-08-05T17:50:04.168Z,26.74
2022-08-05T17:52:53.376Z,26.64
2022-08-05T17:55:34.516Z,26.54
2022-08-05T17:58:09.442Z,26.47
2022-08-05T18:00:44.407Z,26.40
2022-08-05T18:03:24.120Z,26.33
2022-08-05T18:06:05.002Z,26.16
2022-08-05T18:08:33.817Z,26.19
2022-08-05T18:11:03.071Z,26.12
2022-08-05T18:13:36.906Z,26.06
2022-08-05T18:16:13.658Z,25.96
2022-08-05T18:18:41.501Z,25.90
2022-08-05T18:21:21.267Z,25.84
2022-08-05T18:23:53.712Z,25.74
2022-08-05T18:26:27.431Z,25.68
2022-08-05T18:28:57.302Z,25.61
2022-08-05T18:31:24.577Z,25.55
2022-08-05T18:33:52.722Z,25.50
2022-08-05T18:36:19.882Z,25.42
2022-08-05T18:38:56.476Z,25.35
2022-08-05T18:42:00.701Z,25.28
2022-08-05T18:44:12.754Z,25.20
2022-08-05T18:46:41.249Z,25.17
2022-08-05T18:49:30.582Z,25.04
2022-08-05T18:52:33.670Z,25.03
2022-08-05T18:55:06.539Z,25.00
2022-08-05T18:57:43.582Z,24.95
2022-08-05T19:00:27.090Z,24.90
2022-08-05T19:03:03.719Z,24.85
2022-08-05T19:06:13.612Z,24.81
2022-08-05T19:08:19.842Z,24.78
2022-08-05T19:10:50.170Z,24.74
2022-08-05T19:13:18.233Z,24.71
2022-08-05T19:15:59.246Z,24.68
2022-08-05T19:18:31.522Z,24.40
2022-08-05T19:20:59.874Z,24.62
2022-08-05T19:24:06.640Z,24.60
2022-08-05T19:26:17.937Z,24.55
2022-08-05T19:28:46.210Z,24.55
2022-08-05T19:31:17.922Z,24.54
2022-08-05T19:33:56.098Z,24.48
2022-08-05T19:36:29.294Z,24.53
2022-08-05T19:39:01.117Z,24.49
2022-08-05T19:42:03.349Z,24.45
2022-08-05T19:44:19.007Z,24.39
2022-08-05T19:46:46.933Z,24.38
2022-08-05T19:49:16.613Z,24.34
2022-08-05T19:52:09.008Z,24.32
2022-08-05T19:54:35.139Z,24.29
2022-08-05T19:57:09.185Z,24.27
2022-08-05T20:00:00.522Z,24.24
2022-08-05T20:02:27.817Z,24.19
2022-08-05T20:04:58.823Z,24.18
2022-08-05T20:07:46.142Z,24.16
2022-08-05T20:10:22.339Z,24.12
2022-08-05T20:12:52.136Z,24.13
2022-08-05T20:15:47.689Z,24.10
2022-08-05T20:18:33.206Z,24.06
2022-08-05T20:20:59.960Z,24.02
2022-08-05T20:23:40.526Z,24.00
2022-08-05T20:26:17.126Z,23.97
2022-08-05T20:28:56.210Z,23.98
2022-08-05T20:31:36.861Z,23.94
2022-08-05T20:34:10.693Z,23.92
2022-08-05T20:36:38.976Z,23.87
2022-08-05T20:39:06.424Z,23.83
2022-08-05T20:41:44.439Z,23.82
2022-08-05T20:44:18.884Z,23.82
2022-08-05T20:47:04.171Z,23.77
2022-08-05T20:49:37.818Z,23.77
2022-08-05T20:52:07.233Z,23.74
2022-08-05T20:54:43.442Z,23.74
2022-08-05T20:57:24.728Z,23.73
2022-08-05T21:00:20.915Z,23.73
2022-08-05T21:03:01.547Z,23.70
2022-08-05T21:05:48.184Z,23.69
2022-08-05T21:08:16.194Z,23.67
2022-08-05T21:10:48.805Z,23.65
2022-08-05T21:13:26.403Z,23.65
2022-08-05T21:16:04.659Z,23.62
2022-08-05T21:18:32.144Z,23.64
2022-08-05T21:20:59.254Z,23.62
2022-08-05T21:23:26.365Z,23.63
2022-08-05T21:25:55.423Z,23.62
2022-08-05T21:28:23.843Z,23.62
2022-08-05T21:30:57.748Z,23.62
2022-08-05T21:33:24.834Z,23.62
2022-08-05T21:36:05.426Z,23.62
2022-08-05T21:38:32.528Z,23.62
2022-08-05T21:40:59.519Z,23.63
2022-08-05T21:43:27.679Z,23.60
2022-08-05T21:46:09.101Z,23.59
2022-08-05T21:48:39.682Z,23.58
2022-08-05T21:51:25.320Z,23.55
2022-08-05T21:53:59.488Z,23.54
2022-08-05T21:56:31.092Z,23.51
2022-08-05T21:58:58.340Z,23.50
2022-08-05T22:01:26.348Z,23.46
2022-08-05T22:03:53.990Z,23.49
2022-08-05T22:06:22.395Z,23.48
2022-08-05T22:08:52.026Z,23.49
2022-08-05T22:11:35.266Z,23.48
2022-08-05T22:14:18.238Z,23.47
2022-08-05T22:20:01.592Z,23.42
2022-08-05T22:22:12.335Z,23.40
2022-08-05T22:25:00.481Z,23.40
2022-08-05T22:28:09.953Z,23.38
2022-08-05T22:30:37.653Z,23.36
2022-08-05T22:33:57.572Z,23.34
2022-08-05T22:36:09.909Z,23.33
2022-08-05T22:38:37.501Z,23.32
2022-08-05T22:41:09.708Z,23.32
2022-08-05T22:43:38.170Z,23.29
2022-08-05T22:46:12.137Z,23.29
2022-08-05T22:48:42.107Z,23.28
2022-08-05T22:51:15.965Z,23.24
2022-08-05T22:53:51.139Z,23.24
2022-08-05T22:56:30.121Z,23.24
2022-08-05T22:58:59.834Z,23.25
2022-08-05T23:02:04.293Z,23.23
2022-08-05T23:04:17.053Z,23.21
2022-08-05T23:06:44.257Z,23.21
2022-08-05T23:09:52.421Z,23.23
2022-08-05T23:12:01.944Z,23.22
2022-08-05T23:14:31.747Z,23.25
2022-08-05T23:17:24.046Z,23.25
2022-08-05T23:19:56.826Z,23.26
2022-08-05T23:22:27.140Z,23.25
2022-08-05T23:24:55.195Z,23.25
2022-08-05T23:27:22.676Z,23.25
2022-08-05T23:29:51.139Z,23.22
2022-08-05T23:32:22.502Z,23.21
2022-08-05T23:34:50.747Z,23.20
2022-08-05T23:37:18.410Z,23.19
2022-08-05T23:39:54.163Z,23.16
2022-08-05T23:42:23.450Z,23.15
2022-08-05T23:44:56.187Z,23.11
2022-08-05T23:47:24.842Z,23.08
2022-08-05T23:49:55.602Z,23.10
2022-08-05T23:52:27.482Z,23.10
2022-08-05T23:55:00.031Z,23.11
2022-08-05T23:57:28.278Z,23.08
